Terminal Aerodrome Forecast
Issued by NWS Charleston, WV

Current Version | Previous Version | Graphics & Text | Print | Product List | Glossary Off
Versions: 1 2 3 4 5 6 7 8 9 10 11 12 13 14 15 16 17 18 19 20 21 22 23 24 25 26

110
FTUS41 KRLX 271737
TAFCRW
TAF
KCRW 271737Z 2718/2818 20005KT P6SM VCSH SCT022 BKN045 BKN190
     FM272300 19004KT P6SM BKN100
     FM280500 00000KT 3SM BR SCT100
     FM280600 00000KT 1 1/2SM BR SCT100
     FM280700 00000KT 1/2SM FG VV001
     FM281300 00000KT 4SM BR SCT002 SCT070
     FM281400 00000KT P6SM SCT060=

USA.gov is the U.S. government's official web portal to all federal, state and local government web resources and services.